Time;durP1;ratioP1;P1;durP2;ratioP2;P2;SDS_P1;SDS_P2;PMS_P1;PMS_P2;Temp;Humidity;BMP_temperature;BMP_pressure;BME280_temperature;BME280_humidity;BME280_pressure;Samples;Min_cycle;Max_cycle;Signal;HPM_P1;HPM_P2
2020/12/09 00:03:00;;;;;;;89.77;36.57;;;;;;;-1.07;90.62;98719.92;4315360;81;21246;-80
2020/12/09 00:09:11;;;;;;;89.27;39.50;;;;;;;-1.03;90.97;98716.86;4276733;82;21144;-80
2020/12/09 00:15:13;;;;;;;87.17;38.63;;;;;;;-1.01;90.77;98722.73;4368479;80;21163;-80
2020/12/09 00:21:23;;;;;;;85.57;38.03;;;;;;;-0.93;90.76;98736.77;4361224;81;21641;-80
2020/12/09 00:27:24;;;;;;;95.37;39.03;;;;;;;-0.85;90.86;98740.07;4360198;79;21165;-80
2020/12/09 00:33:25;;;;;;;97.90;40.90;;;;;;;-0.78;90.75;98739.61;4367705;79;21145;-80
2020/12/09 00:39:27;;;;;;;100.70;43.53;;;;;;;-0.77;90.68;98733.96;4372984;81;21315;-80
2020/12/09 00:45:28;;;;;;;101.53;40.87;;;;;;;-0.78;90.82;98740.95;4382083;81;21214;-80
2020/12/09 00:51:30;;;;;;;100.80;40.80;;;;;;;-0.82;90.79;98748.86;4369123;79;21169;-80
2020/12/09 00:57:32;;;;;;;101.37;41.43;;;;;;;-0.83;90.81;98747.26;4212709;82;21511;-80
2020/12/09 01:03:34;;;;;;;88.83;41.13;;;;;;;-0.86;90.86;98743.84;4228952;82;21647;-80
2020/12/09 01:09:35;;;;;;;94.47;40.43;;;;;;;-0.87;91.00;98737.43;4202026;82;21212;-80
2020/12/09 01:15:39;;;;;;;90.93;40.93;;;;;;;-0.85;91.04;98737.92;4191459;83;21187;-80
2020/12/09 01:21:40;;;;;;;84.60;39.23;;;;;;;-0.84;91.04;98736.27;4190222;83;21613;-80
2020/12/09 01:27:42;;;;;;;86.77;36.07;;;;;;;-0.82;90.97;98738.11;4207737;82;21157;-80
2020/12/09 01:33:43;;;;;;;77.47;35.93;;;;;;;-0.78;90.97;98739.61;4199902;84;21289;-80
2020/12/09 01:39:45;;;;;;;79.60;36.73;;;;;;;-0.78;90.97;98739.61;4200760;82;21201;-80
2020/12/09 01:45:46;;;;;;;78.97;36.60;;;;;;;-0.82;90.92;98732.73;4195910;83;21764;-80
2020/12/09 01:51:48;;;;;;;77.30;35.10;;;;;;;-0.80;90.99;98728.41;4203166;84;21481;-80
2020/12/09 01:57:49;;;;;;;73.70;33.60;;;;;;;-0.82;91.00;98740.80;4197120;84;21583;-80
2020/12/09 02:03:51;;;;;;;70.87;32.60;;;;;;;-0.82;90.91;98748.06;4226970;80;21346;-80
2020/12/09 02:09:59;;;;;;;78.20;34.00;;;;;;;-0.81;90.82;98738.89;4337128;80;21632;-80
2020/12/09 02:16:01;;;;;;;71.97;33.73;;;;;;;-0.91;90.91;98726.49;4279139;81;21164;-80
2020/12/09 02:22:11;;;;;;;73.93;32.17;;;;;;;-0.96;91.11;98729.87;4280845;81;21176;-80
2020/12/09 02:28:13;;;;;;;66.00;31.83;;;;;;;-1.01;91.07;98737.51;4289631;81;21821;-80
2020/12/09 02:34:14;;;;;;;69.67;31.47;;;;;;;-1.04;91.12;98740.00;4305195;81;21303;-80
2020/12/09 02:40:16;;;;;;;70.07;30.70;;;;;;;-1.09;91.04;98730.17;4324875;81;21606;-80
2020/12/09 02:46:17;;;;;;;74.33;33.43;;;;;;;-1.09;91.03;98732.06;4324266;81;21213;-80
2020/12/09 02:52:20;;;;;;;63.33;29.67;;;;;;;-1.11;91.18;98735.05;4314305;81;21464;-80
2020/12/09 02:58:21;;;;;;;70.77;31.67;;;;;;;-1.14;91.14;98735.66;4325503;81;21656;-80
2020/12/09 03:04:22;;;;;;;69.73;31.63;;;;;;;-1.19;91.09;98726.38;4284487;81;21177;-80
2020/12/09 03:10:24;;;;;;;67.00;30.87;;;;;;;-1.22;91.10;98723.53;4201357;84;21183;-80
2020/12/09 03:16:26;;;;;;;71.63;32.03;;;;;;;-1.25;91.12;98730.85;4198952;84;21529;-80
2020/12/09 03:22:27;;;;;;;75.13;34.13;;;;;;;-1.27;91.05;98725.79;4201086;84;21234;-82
2020/12/09 03:28:28;;;;;;;71.53;31.33;;;;;;;-1.28;91.10;98716.12;4204243;84;21711;-79
2020/12/09 03:34:35;;;;;;;72.10;30.30;;;;;;;-1.34;91.16;98718.69;4196279;84;21352;-80
2020/12/09 03:40:36;;;;;;;;;;;;;;;-1.40;91.14;98727.96;4196471;84;21342;-79
2020/12/09 03:46:38;;;;;;;68.40;31.20;;;;;;;-1.40;91.20;98743.27;4207795;84;20239;-80
2020/12/09 03:52:39;;;;;;;64.63;28.13;;;;;;;-1.41;91.10;98739.00;4122746;84;21124;-80
2020/12/09 03:58:40;;;;;;;65.17;28.23;;;;;;;-1.47;91.11;98738.88;4131350;85;21195;-80
2020/12/09 04:04:42;;;;;;;65.97;28.53;;;;;;;-1.50;91.14;98740.26;4123217;85;21258;-80
2020/12/09 04:10:43;;;;;;;59.97;28.63;;;;;;;-1.53;91.13;98736.06;4035774;87;21187;-80
2020/12/09 04:16:44;;;;;;;67.63;29.07;;;;;;;-1.59;91.08;98738.05;4122323;85;21246;-80
2020/12/09 04:22:46;;;;;;;62.37;28.33;;;;;;;-1.61;91.21;98736.20;4114520;85;21167;-80
2020/12/09 04:28:47;;;;;;;62.17;27.10;;;;;;;-1.63;91.11;98742.45;4121129;85;21325;-80
2020/12/09 04:34:57;;;;;;;66.50;29.10;;;;;;;-1.64;91.29;98739.50;4119092;85;21895;-80
2020/12/09 04:40:58;;;;;;;63.63;27.90;;;;;;;-1.69;91.21;98735.58;4117771;85;21219;-80
2020/12/09 04:47:04;;;;;;;68.53;29.13;;;;;;;-1.69;91.13;98744.97;4114194;85;21190;-80
2020/12/09 04:53:24;;;;;;;64.07;29.05;;;;;;;-1.71;91.23;98747.95;4121207;85;21342;-81
2020/12/09 04:59:25;;;;;;;67.63;30.20;;;;;;;-1.73;91.26;98732.72;4117064;85;21187;-79
2020/12/09 05:05:28;;;;;;;68.77;28.40;;;;;;;-1.77;91.23;98729.03;4114005;85;21208;-80
2020/12/09 05:11:29;;;;;;;66.60;29.17;;;;;;;-1.80;91.17;98735.00;4144356;85;21727;-80
2020/12/09 05:17:36;;;;;;;65.87;28.33;;;;;;;-1.83;91.19;98728.91;4138299;85;21195;-80
2020/12/09 05:23:44;;;;;;;68.30;27.30;;;;;;;-1.84;91.20;98738.59;4068785;85;21177;-80
2020/12/09 05:29:50;;;;;;;70.90;29.63;;;;;;;-1.83;91.34;98741.52;4038623;87;21233;-80
2020/12/09 05:36:00;;;;;;;62.38;26.57;;;;;;;-1.85;91.28;98734.33;3966107;88;21936;-79
2020/12/09 05:42:14;;;;;;;68.97;30.43;;;;;;;-1.89;91.24;98748.89;4118400;85;21169;-80
2020/12/09 05:48:24;;;;;;;63.30;29.37;;;;;;;-1.90;91.31;98744.63;4131096;85;22201;-80
2020/12/09 05:54:32;;;;;;;68.97;29.07;;;;;;;-1.91;91.35;98739.56;4125752;84;21585;-80
2020/12/09 06:00:34;;;;;;;67.43;30.63;;;;;;;-1.92;91.37;98742.78;4118430;84;21730;-80
2020/12/09 06:06:37;;;;;;;66.87;30.30;;;;;;;-1.91;91.36;98738.99;4130821;84;21187;-80
2020/12/09 06:12:52;;;;;;;71.83;30.07;;;;;;;-1.88;91.42;98738.96;4128911;84;21186;-80
2020/12/09 06:18:56;;;;;;;75.13;30.70;;;;;;;-1.86;91.43;98734.88;4128782;84;21211;-80
2020/12/09 06:25:05;;;;;;;68.93;29.23;;;;;;;-1.85;91.48;98751.77;4124268;85;21349;-80
2020/12/09 06:31:22;;;;;;;65.40;27.67;;;;;;;-1.77;91.55;98753.75;4506046;78;22994;-80
2020/12/09 06:37:24;;;;;;;63.23;27.80;;;;;;;-1.80;91.67;98759.70;4437387;80;21140;-81
2020/12/09 06:43:26;;;;;;;64.20;28.30;;;;;;;-1.78;91.74;98765.02;4437267;80;21124;-80
2020/12/09 06:49:36;;;;;;;62.80;27.43;;;;;;;-1.75;91.60;98779.72;4446772;80;21184;-81
2020/12/09 06:55:38;;;;;;;64.37;26.67;;;;;;;-1.73;91.67;98777.54;4432650;80;21201;-80
2020/12/09 07:02:05;;;;;;;66.70;28.60;;;;;;;-1.67;91.78;98791.90;4439261;80;21596;-81
2020/12/09 07:08:06;;;;;;;66.93;29.27;;;;;;;-1.65;91.72;98792.41;4436162;79;21301;-81
2020/12/09 07:14:07;;;;;;;73.40;32.03;;;;;;;-1.61;91.72;98793.91;4440165;80;21580;-81
2020/12/09 07:20:10;;;;;;;66.03;28.00;;;;;;;-1.57;91.68;98784.19;4442420;79;21149;-81
2020/12/09 07:26:11;;;;;;;64.30;29.57;;;;;;;-1.53;91.70;98787.84;4407906;79;21129;-81
2020/12/09 07:32:22;;;;;;;75.93;32.07;;;;;;;-1.51;91.72;98772.78;4425861;79;21172;-81
2020/12/09 07:38:23;;;;;;;76.13;31.50;;;;;;;-1.46;91.76;98778.84;4327244;79;21563;-81
2020/12/09 07:44:26;;;;;;;71.80;29.83;;;;;;;-1.42;91.73;98791.90;4235664;82;21227;-81
2020/12/09 07:50:27;;;;;;;79.87;31.03;;;;;;;-1.40;91.66;98792.41;4234842;82;21189;-81
2020/12/09 07:56:29;;;;;;;80.27;30.87;;;;;;;-1.39;91.61;98799.92;4237449;82;21167;-81
2020/12/09 08:02:30;;;;;;;67.80;29.53;;;;;;;-1.36;91.69;98795.28;4239988;82;21310;-80
2020/12/09 08:08:33;;;;;;;72.73;30.43;;;;;;;-1.38;91.62;98800.95;4229029;82;21185;-81
2020/12/09 08:14:35;;;;;;;69.90;29.53;;;;;;;-1.37;91.67;98800.39;4232897;82;21163;-82
2020/12/09 08:20:49;;;;;;;66.33;27.90;;;;;;;-1.35;91.66;98808.95;4240531;82;21182;-81
2020/12/09 08:26:50;;;;;;;78.77;30.80;;;;;;;-1.32;91.75;98814.52;4238241;81;21334;-81
2020/12/09 08:33:11;;;;;;;81.83;35.63;;;;;;;-1.32;91.67;98815.86;4223457;83;21309;-83
2020/12/09 08:39:13;;;;;;;83.70;34.50;;;;;;;-1.26;91.75;98820.02;4141503;84;21375;-81
2020/12/09 08:45:15;;;;;;;74.33;30.70;;;;;;;-1.24;91.69;98813.80;4155437;84;21202;-81
2020/12/09 08:51:18;;;;;;;81.83;35.70;;;;;;;-1.19;91.59;98819.04;4149572;84;21189;-81
2020/12/09 08:57:19;;;;;;;74.63;29.87;;;;;;;-1.14;91.61;98815.48;4130771;84;21198;-81
2020/12/09 09:03:24;;;;;;;70.93;29.60;;;;;;;-1.05;91.54;98833.23;4146022;84;21195;-81
2020/12/09 09:09:24;;;;;;;74.77;31.00;;;;;;;-1.03;91.47;98834.27;4141308;84;21352;-81
2020/12/09 09:15:26;;;;;;;71.73;28.93;;;;;;;-1.00;91.50;98832.34;4135946;84;21165;-80
2020/12/09 09:21:37;;;;;;;64.73;28.87;;;;;;;-1.02;91.39;98835.87;4147448;84;21195;-81
2020/12/09 09:27:38;;;;;;;75.57;31.47;;;;;;;-0.98;91.48;98822.06;4132396;84;21254;-81
2020/12/09 09:33:40;;;;;;;69.10;30.00;;;;;;;-0.93;91.37;98834.86;4098822;85;21209;-81
2020/12/09 09:39:43;;;;;;;67.73;28.20;;;;;;;-0.90;91.30;98836.13;4100181;85;21201;-81
2020/12/09 09:45:44;;;;;;;66.57;29.27;;;;;;;-0.91;91.19;98834.55;4100742;85;21230;-81
2020/12/09 09:51:46;;;;;;;73.03;30.97;;;;;;;-0.91;91.36;98851.45;4130048;85;21186;-81
2020/12/09 09:57:47;;;;;;;70.63;29.50;;;;;;;-0.86;91.31;98843.84;4064773;86;21247;-81
2020/12/09 10:03:49;;;;;;;66.70;30.60;;;;;;;-0.91;91.25;98843.38;4070561;86;21193;-81
2020/12/09 10:09:50;;;;;;;70.00;30.83;;;;;;;-0.93;91.24;98838.08;4061434;86;21248;-81
2020/12/09 10:15:52;;;;;;;69.80;30.50;;;;;;;-0.92;91.17;98833.74;4051873;86;21207;-81
2020/12/09 10:21:53;;;;;;;67.20;29.97;;;;;;;-0.86;91.15;98821.00;4117530;85;21632;-81
2020/12/09 10:27:55;;;;;;;68.53;29.97;;;;;;;-0.84;91.06;98812.87;4123563;84;21343;-81
2020/12/09 10:33:57;;;;;;;74.77;30.47;;;;;;;-0.81;90.98;98806.08;4096541;85;21228;-81
2020/12/09 10:39:59;;;;;;;77.47;33.33;;;;;;;-0.79;91.01;98802.00;4143282;84;21308;-81
2020/12/09 10:46:00;;;;;;;70.20;29.87;;;;;;;-0.83;90.91;98815.79;4102395;85;21658;-81
2020/12/09 10:52:02;;;;;;;84.47;34.17;;;;;;;-0.82;90.85;98816.59;4061655;86;21168;-81
2020/12/09 10:58:03;;;;;;;76.33;31.37;;;;;;;-0.80;90.69;98806.34;4097922;85;21260;-81
2020/12/09 11:04:05;;;;;;;63.67;29.97;;;;;;;-0.81;90.80;98793.44;4077986;85;21639;-81
2020/12/09 11:10:06;;;;;;;75.60;33.07;;;;;;;-0.81;90.63;98785.38;4078727;85;21201;-83
2020/12/09 11:16:16;;;;;;;77.87;33.73;;;;;;;-0.80;90.77;98781.58;4077584;85;21207;-81
2020/12/09 11:22:18;;;;;;;70.40;31.60;;;;;;;-0.73;90.68;98794.05;4080942;85;21241;-81
2020/12/09 11:28:20;;;;;;;69.50;31.40;;;;;;;-0.68;90.63;98768.40;4154777;83;21198;-81
2020/12/09 11:34:23;;;;;;;77.53;32.87;;;;;;;-0.72;90.52;98759.91;4195411;84;21341;-81
2020/12/09 11:40:25;;;;;;;72.53;32.53;;;;;;;-0.62;90.66;98765.02;4190235;84;21204;-81
2020/12/09 11:46:28;;;;;;;75.03;32.97;;;;;;;-0.65;90.40;98780.42;4188511;84;21232;-81
2020/12/09 11:52:29;;;;;;;73.83;33.47;;;;;;;-0.72;90.38;98768.75;4124021;84;21189;-81
2020/12/09 11:58:31;;;;;;;76.33;32.13;;;;;;;-0.78;90.35;98755.73;4166619;83;21172;-81
2020/12/09 12:04:32;;;;;;;79.03;33.77;;;;;;;-0.72;90.44;98765.30;4081440;85;21897;-81
2020/12/09 12:10:34;;;;;;;80.60;35.23;;;;;;;-0.67;90.35;98759.22;4155606;84;21184;-81
2020/12/09 12:16:35;;;;;;;78.80;34.93;;;;;;;-0.68;90.24;98757.65;4125993;84;21592;-81
2020/12/09 12:22:37;;;;;;;80.37;34.93;;;;;;;-0.72;90.14;98763.38;4123519;84;21242;-81
2020/12/09 12:28:38;;;;;;;75.13;33.83;;;;;;;-0.77;90.14;98758.69;4128774;84;21778;-81
2020/12/09 12:34:39;;;;;;;96.13;39.07;;;;;;;-0.79;90.23;98760.88;4154418;84;21677;-81
2020/12/09 12:40:41;;;;;;;87.13;36.03;;;;;;;-0.84;90.04;98761.80;4155788;84;21163;-81
2020/12/09 12:46:47;;;;;;;103.40;41.87;;;;;;;-0.88;89.95;98762.73;4154283;84;21175;-81
2020/12/09 12:52:48;;;;;;;81.17;35.95;;;;;;;-0.90;90.01;98758.20;4155926;84;21191;-81
2020/12/09 12:58:50;;;;;;;82.67;35.97;;;;;;;-0.97;89.91;98749.79;4161627;84;21478;-81
2020/12/09 13:04:51;;;;;;;83.73;34.70;;;;;;;-0.96;90.00;98763.45;4162812;84;21202;-81
2020/12/09 13:10:53;;;;;;;78.40;33.60;;;;;;;-0.99;89.78;98758.70;4158344;84;21208;-82
2020/12/09 13:16:54;;;;;;;94.83;37.30;;;;;;;-1.06;89.70;98761.80;4152940;84;21212;-81
2020/12/09 13:22:56;;;;;;;83.93;34.47;;;;;;;-1.13;89.66;98754.73;4150517;84;21163;-80
2020/12/09 13:28:57;;;;;;;89.40;36.37;;;;;;;-1.18;89.74;98752.16;4143548;84;21353;-81
2020/12/09 13:34:59;;;;;;;88.53;38.40;;;;;;;-1.18;89.85;98754.04;4129782;84;21761;-81
2020/12/09 13:41:00;;;;;;;81.63;36.27;;;;;;;-1.14;89.80;98753.13;4126190;84;21200;-81
2020/12/09 13:47:02;;;;;;;81.37;34.60;;;;;;;-1.15;89.84;98753.43;4130135;84;21948;-81
2020/12/09 13:53:04;;;;;;;76.53;35.17;;;;;;;-1.17;89.62;98746.22;4129411;84;21202;-81
2020/12/09 13:59:06;;;;;;;79.63;36.17;;;;;;;-1.25;89.68;98761.73;4128965;84;21218;-80
2020/12/09 14:05:07;;;;;;;93.63;41.90;;;;;;;-1.26;89.76;98761.47;4125463;84;21241;-79
2020/12/09 14:11:09;;;;;;;84.20;35.20;;;;;;;-1.25;89.75;98762.52;4120456;84;21230;-79
2020/12/09 14:17:10;;;;;;;84.97;38.07;;;;;;;-1.29;89.70;98765.57;4125822;84;21668;-81
2020/12/09 14:23:12;;;;;;;83.97;36.43;;;;;;;-1.33;89.72;98774.54;4124787;84;21163;-80
2020/12/09 14:29:14;;;;;;;84.23;38.27;;;;;;;-1.35;89.52;98773.50;4126426;84;21192;-81
2020/12/09 14:35:16;;;;;;;75.00;35.40;;;;;;;-1.39;89.50;98773.06;4128775;84;21229;-80
2020/12/09 14:41:17;;;;;;;79.93;35.57;;;;;;;-1.43;89.49;98766.16;4129336;84;21323;-80
2020/12/09 14:47:20;;;;;;;75.90;35.17;;;;;;;-1.47;89.58;98757.67;4136086;84;21220;-81
2020/12/09 14:53:21;;;;;;;81.13;35.60;;;;;;;-1.48;89.46;98758.21;4134492;84;21224;-81
2020/12/09 14:59:23;;;;;;;85.27;36.83;;;;;;;-1.45;89.67;98763.52;4065147;86;21213;-83
2020/12/09 15:05:24;;;;;;;92.57;36.53;;;;;;;-1.47;89.48;98769.75;4112529;85;21216;-83
2020/12/09 15:11:28;;;;;;;81.43;36.07;;;;;;;-1.49;89.57;98770.05;4108706;85;21192;-82
2020/12/09 15:17:29;;;;;;;99.40;39.83;;;;;;;-1.49;89.56;98771.94;4110779;85;21229;-83
2020/12/09 15:23:31;;;;;;;77.23;35.20;;;;;;;-1.49;89.47;98755.29;4110949;85;21614;-83
2020/12/09 15:29:32;;;;;;;85.23;35.70;;;;;;;-1.49;89.44;98747.77;4114414;85;21193;-83
2020/12/09 15:35:34;;;;;;;83.83;35.80;;;;;;;-1.50;89.39;98757.70;4134024;85;21625;-83
2020/12/09 15:41:35;;;;;;;82.50;35.30;;;;;;;-1.53;89.49;98763.68;4142570;85;21136;-81
2020/12/09 15:47:41;;;;;;;92.67;37.87;;;;;;;-1.52;89.52;98755.89;4096704;85;21214;-81
2020/12/09 15:53:42;;;;;;;84.77;33.40;;;;;;;-1.52;89.38;98760.46;4091772;85;21223;-81
2020/12/09 15:59:44;;;;;;;86.57;36.60;;;;;;;-1.58;89.28;98757.08;4096748;85;21700;-81
2020/12/09 16:05:46;;;;;;;83.97;35.57;;;;;;;-1.62;89.38;98759.59;4095919;85;21335;-81
2020/12/09 16:11:50;;;;;;;89.07;37.17;;;;;;;-1.65;89.37;98760.20;4096276;85;21842;-80
2020/12/09 16:17:52;;;;;;;87.10;36.43;;;;;;;-1.65;89.41;98764.76;4096251;85;21963;-81
2020/12/09 16:23:53;;;;;;;82.23;36.73;;;;;;;-1.66;89.44;98762.61;4088437;85;21165;-81
2020/12/09 16:29:55;;;;;;;89.93;38.77;;;;;;;-1.67;89.37;98776.33;4095182;85;21950;-80
2020/12/09 16:35:57;;;;;;;107.13;46.63;;;;;;;-1.68;89.43;98772.07;4146003;85;21907;-81
2020/12/09 16:42:00;;;;;;;89.07;38.73;;;;;;;-1.71;89.37;98768.08;4134292;84;21346;-80
2020/12/09 16:48:01;;;;;;;81.37;35.17;;;;;;;-1.71;89.41;98770.77;4055464;86;21142;-79
2020/12/09 16:54:03;;;;;;;87.57;36.37;;;;;;;-1.72;89.36;98779.92;4123862;85;21217;-81
2020/12/09 17:00:07;;;;;;;82.80;36.03;;;;;;;-1.75;89.48;98778.38;4117836;85;21790;-80
2020/12/09 17:06:11;;;;;;;81.63;37.50;;;;;;;-1.73;89.42;98778.34;4120940;85;21686;-81
2020/12/09 17:12:14;;;;;;;100.00;40.07;;;;;;;-1.69;89.44;98783.88;4092995;85;21786;-81
2020/12/09 17:18:16;;;;;;;88.83;36.57;;;;;;;-1.72;89.38;98773.21;4118359;85;21320;-79
2020/12/09 17:24:18;;;;;;;100.67;39.53;;;;;;;-1.73;89.36;98773.52;4122072;85;21642;-81
2020/12/09 17:30:23;;;;;;;93.23;39.57;;;;;;;-1.80;89.43;98766.40;4120697;85;21208;-81
2020/12/09 17:38:36;;;;;;;97.83;37.50;;;;;;;-1.75;89.38;98754.23;4538276;77;22945;-80
2020/12/09 17:44:38;;;;;;;90.97;37.33;;;;;;;-1.83;89.44;98758.95;4379800;78;21055;-80
2020/12/09 17:50:39;;;;;;;111.90;44.10;;;;;;;-1.83;89.42;98756.27;4236220;82;21230;-81
2020/12/09 17:56:41;;;;;;;96.87;38.37;;;;;;;-1.87;89.42;98745.91;4246872;82;21184;-82
2020/12/09 18:02:42;;;;;;;96.97;40.33;;;;;;;-1.92;89.47;98749.48;4166195;84;21180;-82
2020/12/09 18:08:44;;;;;;;99.13;40.23;;;;;;;-1.93;89.45;98749.25;4093891;86;21358;-82
2020/12/09 18:14:45;;;;;;;99.67;39.27;;;;;;;-1.94;89.49;98748.98;4198576;83;21188;-82
2020/12/09 18:20:47;;;;;;;103.27;39.47;;;;;;;-1.94;89.51;98738.25;4161391;84;21717;-82
2020/12/09 18:26:56;;;;;;;99.77;40.33;;;;;;;-1.92;89.57;98745.46;4157674;84;21368;-82
2020/12/09 18:33:00;;;;;;;95.53;39.30;;;;;;;-1.91;89.52;98763.14;4152141;84;21634;-81
2020/12/09 18:39:02;;;;;;;88.47;37.27;;;;;;;-1.87;89.50;98758.78;4163819;85;21231;-81
2020/12/09 18:45:05;;;;;;;105.17;43.33;;;;;;;-1.86;89.61;98745.60;4086279;86;21180;-81
2020/12/09 18:51:07;;;;;;;106.10;43.17;;;;;;;-1.82;89.51;98753.28;4195782;85;21200;-81
2020/12/09 18:57:08;;;;;;;100.67;39.63;;;;;;;-1.81;89.52;98755.44;4121378;85;21344;-81
2020/12/09 19:03:10;;;;;;;99.00;39.37;;;;;;;-1.86;89.47;98755.53;4164608;85;21181;-81
2020/12/09 19:09:11;;;;;;;103.63;41.93;;;;;;;-1.89;89.56;98748.89;4162684;85;21185;-81
2020/12/09 19:15:14;;;;;;;107.33;41.50;;;;;;;-1.88;89.55;98740.30;4161735;85;21213;-81
2020/12/09 19:21:18;;;;;;;96.17;40.13;;;;;;;-1.88;89.54;98740.30;4166049;85;21822;-81
2020/12/09 19:27:37;;;;;;;105.23;40.23;;;;;;;-1.84;89.62;98744.77;4156781;85;21213;-80
2020/12/09 19:33:39;;;;;;;97.27;39.57;;;;;;;-1.85;89.59;98729.73;4160497;84;21203;-81
2020/12/09 19:39:40;;;;;;;86.77;37.37;;;;;;;-1.83;89.61;98757.08;4161404;85;21196;-81
2020/12/09 19:45:42;;;;;;;99.83;41.80;;;;;;;-1.80;89.65;98747.62;4076112;85;21533;-81
2020/12/09 19:51:44;;;;;;;101.50;40.87;;;;;;;-1.80;89.57;98747.08;4214143;83;21183;-81
2020/12/09 19:57:45;;;;;;;114.67;43.87;;;;;;;-1.81;89.60;98753.55;4213563;83;21176;-81
2020/12/09 20:03:48;;;;;;;116.90;43.27;;;;;;;-1.81;89.60;98767.51;4215793;83;21727;-81
2020/12/09 20:09:49;;;;;;;103.23;39.73;;;;;;;-1.79;89.61;98769.34;4222029;83;21243;-81
2020/12/09 20:15:51;;;;;;;119.20;45.40;;;;;;;-1.79;89.54;98778.74;4205006;83;21187;-81
2020/12/09 20:21:52;;;;;;;112.73;44.93;;;;;;;-1.81;89.55;98776.90;4216918;83;21163;-82
2020/12/09 20:27:54;;;;;;;111.83;42.33;;;;;;;-1.83;89.57;98777.20;4206885;83;21679;-81
2020/12/09 20:33:56;;;;;;;113.20;42.00;;;;;;;-1.80;89.63;98765.06;4211130;83;21227;-82
2020/12/09 20:39:58;;;;;;;119.93;44.73;;;;;;;-1.83;89.55;98762.98;4268599;83;21187;-82
2020/12/09 20:45:59;;;;;;;107.73;42.93;;;;;;;-1.85;89.60;98755.80;4269183;83;21504;-81
2020/12/09 20:52:02;;;;;;;125.37;46.20;;;;;;;-1.91;89.65;98744.36;4271910;83;21143;-80
2020/12/09 20:58:04;;;;;;;116.20;43.37;;;;;;;-1.92;89.69;98748.15;4271114;83;21317;-81
2020/12/09 21:04:06;;;;;;;115.07;41.60;;;;;;;-1.94;89.66;98746.30;4273231;83;21155;-80
2020/12/09 21:10:08;;;;;;;111.50;43.77;;;;;;;-1.91;89.68;98748.38;4272791;83;21191;-80
2020/12/09 21:16:19;;;;;;;110.80;41.70;;;;;;;-1.94;89.63;98754.89;4272245;83;21513;-80
2020/12/09 21:22:20;;;;;;;104.17;40.07;;;;;;;-1.94;89.75;98739.59;4273489;83;21151;-80
2020/12/09 21:28:22;;;;;;;129.97;45.83;;;;;;;-1.94;89.71;98740.94;4266392;83;21601;-80
2020/12/09 21:34:24;;;;;;;118.70;41.47;;;;;;;-1.99;89.66;98737.01;4263488;82;21803;-80
2020/12/09 21:40:26;;;;;;;110.93;42.13;;;;;;;-1.97;89.82;98738.86;4225313;83;21648;-80
2020/12/09 21:46:42;;;;;;;101.33;39.47;;;;;;;-1.97;89.80;98737.52;4170386;84;21187;-80
2020/12/09 21:52:46;;;;;;;102.73;38.30;;;;;;;-1.95;89.79;98727.29;4142635;84;21158;-80
2020/12/09 21:58:48;;;;;;;106.97;41.93;;;;;;;-1.96;89.85;98736.41;4142111;84;21225;-80
2020/12/09 22:04:49;;;;;;;104.83;40.27;;;;;;;-1.97;89.76;98726.78;4144583;84;21197;-80
2020/12/09 22:10:51;;;;;;;104.20;40.67;;;;;;;-1.99;89.79;98724.94;4144829;85;21683;-80
2020/12/09 22:16:53;;;;;;;96.77;37.33;;;;;;;-1.99;89.82;98718.23;4137629;84;21476;-80
2020/12/09 22:22:55;;;;;;;94.40;37.73;;;;;;;-1.98;89.84;98713.67;4122671;84;21315;-80
2020/12/09 22:28:57;;;;;;;90.83;36.43;;;;;;;-2.02;89.83;98701.41;4116665;85;21345;-80
2020/12/09 22:34:58;;;;;;;96.63;38.60;;;;;;;-2.04;89.89;98692.88;4145941;84;21188;-80
2020/12/09 22:41:00;;;;;;;89.57;34.90;;;;;;;-2.04;89.93;98672.77;4159962;84;21189;-80
2020/12/09 22:47:02;;;;;;;94.80;36.00;;;;;;;-2.06;89.91;98658.05;4175988;83;21175;-80
2020/12/09 22:53:03;;;;;;;98.37;41.30;;;;;;;-2.07;90.07;98657.81;4158595;84;22109;-80
2020/12/09 22:59:05;;;;;;;89.20;35.10;;;;;;;-2.09;90.00;98654.63;4238609;82;21194;-80
2020/12/09 23:05:06;;;;;;;88.27;33.03;;;;;;;-2.11;90.02;98646.89;4238857;82;21238;-80
2020/12/09 23:11:11;;;;;;;89.87;34.37;;;;;;;-2.12;89.97;98636.46;4237871;82;21171;-80
2020/12/09 23:17:12;;;;;;;84.93;33.13;;;;;;;-2.15;90.02;98635.19;4239137;82;21345;-80
2020/12/09 23:23:14;;;;;;;90.63;35.27;;;;;;;-2.18;90.01;98625.59;4242234;82;21688;-80
2020/12/09 23:29:15;;;;;;;88.13;34.10;;;;;;;-2.17;90.12;98621.81;4240267;82;21655;-80
2020/12/09 23:35:17;;;;;;;83.53;33.07;;;;;;;-2.19;90.14;98615.95;4231019;82;21970;-80
2020/12/09 23:41:19;;;;;;;86.17;33.83;;;;;;;-2.20;90.16;98623.22;4209000;83;21610;-80
2020/12/09 23:47:21;;;;;;;83.63;32.70;;;;;;;-2.25;90.18;98619.30;4211274;83;21187;-80
2020/12/09 23:53:22;;;;;;;81.67;33.93;;;;;;;-2.26;90.20;98616.38;4208345;83;21246;-80
2020/12/09 23:59:24;;;;;;;85.60;36.03;;;;;;;-2.29;90.27;98602.78;4218653;83;21194;-80
